Latest Coastal Weather Observations for Thevenard Island

IDW60701

Issued at 1:33 am WST Thursday 3 September 2026 (issued every 10 minutes, with the page automatically refreshed every 10 minutes)

About coastal observations | Map of coastal stations | Coastal observations for WA | Marine services | Other Formats
Station Details ID: 005084 Name: THEVENARD ISLAND Lat: -21.46 Lon: 115.02 Height: 5.0 m
Data from the previous 72 hours. | See also: Recent months at Thevenard Island
Date/Time
WST
Wind Sea
Height
m
Swell Vis
km
Cloud Weather Temp
°C
Press
MSL
hPa
Rain since
9am
mm
Dir  Spd
kts
Gust
kts
Height
m
Period
s
Dir
03/01:30am SSW 15 19 - - - - - - - 22.8 1016.5 0.0
03/01:00am SSW 16 20 - - - - - - - 22.7 1016.6 0.0
03/12:30am SSW 13 16 - - - - - - - 22.9 1016.5 0.0
03/12:00am SW 12 15 - - - - - - - 23.0 1016.8 0.0
 
Date/Time
WST
Wind Sea
Height
m
Swell Vis
km
Cloud Weather Temp
°C
Press
MSL
hPa
Rain since
9am
mm
Dir  Spd
kts
Gust
kts
Height
m
Period
s
Dir
02/11:30pm SW 12 16 - - - - - - - 23.2 1016.8 0.0
02/11:00pm SW 10 11 - - - - - - - 22.7 1016.8 0.0
02/10:30pm WSW 9 10 - - - - - - - 22.6 1016.9 0.0
02/10:00pm W 8 11 - - - - - - - 22.3 1017.0 0.0
02/09:30pm W 9 13 - - - - - - - 22.5 1017.0 0.0
02/09:00pm W 9 12 - - - - - - - 22.5 1016.8 0.0
02/08:30pm WNW 9 12 - - - - - - - 22.4 1016.5 0.0
02/08:00pm WNW 10 14 - - - - - - - 22.6 1016.3 0.0
02/07:30pm W 10 13 - - - - - - - 22.7 1016.1 0.0
02/07:00pm W 10 14 - - - - - - - 22.9 1015.9 0.0
02/06:30pm W 10 14 - - - - - - - 23.1 1015.8 0.0
02/06:00pm W 12 18 - - - - - - - 23.9 1015.7 0.0
02/05:30pm W 13 18 - - - - - - - 25.1 1015.5 0.0
02/05:00pm W 14 19 - - - - - - - 25.7 1015.4 0.0
02/04:30pm W 14 19 - - - - - - - 27.0 1015.2 0.0
02/04:00pm W 13 18 - - - - - - - 28.5 1015.1 0.0
02/03:30pm W 14 18 - - - - - - - 28.2 1015.3 0.0
02/03:00pm W 13 16 - - - - - - - 28.0 1015.4 0.0
02/02:30pm W 12 17 - - - - - - - 28.1 1015.6 0.0
02/02:00pm W 10 13 - - - - - - - 28.6 1015.8 0.0
02/01:30pm WSW 12 16 - - - - - - - 27.7 1016.3 0.0
02/01:00pm WSW 13 16 - - - - - - - 25.8 1016.5 0.0
02/12:30pm W 15 19 - - - - - - - 25.6 1016.9 0.0
02/12:00pm WSW 12 15 - - - - - - - 25.6 1017.5 0.0
02/11:30am WSW 8 10 - - - - - - - 25.6 1018.2 0.0
02/11:00am WSW 9 12 - - - - - - - 25.0 1018.6 0.0
02/10:30am WSW 9 11 - - - - - - - 24.3 1018.9 0.0
02/10:00am SW 7 10 - - - - - - - 23.5 1019.1 0.0
02/09:30am SSW 5 7 - - - - - - - 23.0 1019.1 0.0
02/09:00am SSW 7 8 - - - - - - - 22.6 1019.0 0.0
02/08:30am SSW 8 10 - - - - - - - 22.0 1019.1 0.0
02/08:00am SSW 9 11 - - - - - - - 21.6 1019.0 0.0
02/07:30am SSW 11 13 - - - - - - - 20.9 1018.8 0.0
02/07:00am SSW 11 14 - - - - - - - 20.5 1018.6 0.0
02/06:30am SSW 12 14 - - - - - - - 20.4 1018.5 0.0
02/06:00am SSW 12 14 - - - - - - - 20.5 1018.4 0.0
02/05:30am SW 11 14 - - - - - - - 20.7 1018.2 0.0
02/05:00am SW 13 16 - - - - - - - 20.8 1018.2 0.0
02/04:30am SW 13 16 - - - - - - - 21.0 1018.1 0.0
02/04:00am SW 12 16 - - - - - - - 21.0 1018.0 0.0
02/03:30am SW 11 13 - - - - - - - 21.0 1018.1 0.0
02/03:00am SW 10 12 - - - - - - - 21.2 1018.2 0.0
02/02:30am WSW 10 12 - - - - - - - 21.1 1018.3 0.0
02/02:00am SW 11 13 - - - - - - - 21.3 1018.6 0.0
02/01:30am SW 11 13 - - - - - - - 21.3 1018.5 0.0
02/01:00am SW 11 15 - - - - - - - 21.5 1018.7 0.0
02/12:30am SW 12 14 - - - - - - - 21.5 1018.9 0.0
02/12:00am SW 15 17 - - - - - - - 21.8 1018.9 0.0
 
Date/Time
WST
Wind Sea
Height
m
Swell Vis
km
Cloud Weather Temp
°C
Press
MSL
hPa
Rain since
9am
mm
Dir  Spd
kts
Gust
kts
Height
m
Period
s
Dir
01/11:30pm SW 13 18 - - - - - - - 21.9 1018.9 0.0
01/11:00pm SW 14 18 - - - - - - - 22.0 1019.0 0.0
01/10:30pm SW 15 20 - - - - - - - 22.3 1018.9 0.0
01/10:00pm SW 16 20 - - - - - - - 22.5 1019.0 0.0
01/09:30pm WSW 13 16 - - - - - - - 22.8 1019.0 0.0
01/09:00pm WSW 12 15 - - - - - - - 22.6 1018.9 0.0
01/08:30pm W 11 16 - - - - - - - 22.4 1018.8 0.0
01/08:00pm W 12 15 - - - - - - - 22.4 1018.6 0.0
01/07:30pm W 12 15 - - - - - - - 22.4 1018.2 0.0
01/07:00pm W 11 15 - - - - - - - 22.6 1018.1 0.0
01/06:30pm W 12 16 - - - - - - - 22.9 1018.1 0.0
01/06:00pm WSW 13 17 - - - - - - - 23.5 1017.9 0.0
01/05:30pm W 13 17 - - - - - - - 24.7 1017.7 0.0
01/05:00pm W 12 17 - - - - - - - 25.8 1017.5 0.0
01/04:30pm W 13 18 - - - - - - - 26.4 1017.4 0.0
01/04:00pm W 10 14 - - - - - - - 27.2 1017.3 0.0
01/03:30pm W 11 16 - - - - - - - 27.0 1017.3 0.0
01/03:00pm W 11 15 - - - - - - - 27.0 1017.4 0.0
01/02:30pm WSW 12 14 - - - - - - - 27.4 1017.4 0.0
01/02:00pm W 11 14 - - - - - - - 26.9 1017.7 0.0
01/01:30pm WSW 11 14 - - - - - - - 27.2 1018.0 0.0
01/01:00pm WSW 10 13 - - - - - - - 26.4 1018.4 0.0
01/12:30pm WSW 10 13 - - - - - - - 26.1 1018.7 0.0
01/12:00pm WSW 9 11 - - - - - - - 26.6 1019.1 0.0
01/11:30am SW 7 9 - - - - - - - 26.4 1019.3 0.0
01/11:00am SSW 7 8 - - - - - - - 25.3 1019.7 0.0
01/10:30am S 8 9 - - - - - - - 24.8 1020.1 0.0
01/10:00am S 9 11 - - - - - - - 24.5 1020.4 0.0
01/09:30am S 10 12 - - - - - - - 23.6 1020.5 0.0
01/09:00am S 11 13 - - - - - - - 22.7 1020.5 0.0
01/08:30am SSE 14 16 - - - - - - - 21.7 1020.4 0.0
01/08:00am S 15 17 - - - - - - - 21.4 1020.4 0.0
01/07:30am S 16 18 - - - - - - - 20.7 1020.3 0.0
01/07:00am S 15 18 - - - - - - - 20.3 1020.0 0.0
01/06:30am S 16 18 - - - - - - - 20.0 1019.8 0.0
01/06:00am S 15 18 - - - - - - - 20.1 1019.6 0.0
01/05:30am S 15 18 - - - - - - - 20.2 1019.5 0.0
01/05:00am S 15 17 - - - - - - - 20.3 1019.6 0.0
01/04:30am SSW 14 18 - - - - - - - 20.2 1019.5 0.0
01/04:00am SSW 14 17 - - - - - - - 20.3 1019.4 0.0
01/03:30am SSW 15 17 - - - - - - - 20.4 1019.6 0.0
01/03:00am SSW 15 17 - - - - - - - 20.5 1019.8 0.0
01/02:30am SSW 15 18 - - - - - - - 20.7 1019.7 0.0
01/02:00am SSW 17 19 - - - - - - - 21.0 1019.8 0.0
01/01:30am SSW 16 20 - - - - - - - 21.2 1020.0 0.0
01/01:00am SSW 15 19 - - - - - - - 21.6 1020.2 0.0
01/12:30am SSW 16 19 - - - - - - - 21.8 1020.3 0.0
01/12:00am SSW 15 18 - - - - - - - 21.8 1020.4 0.0
 
Date/Time
WST
Wind Sea
Height
m
Swell Vis
km
Cloud Weather Temp
°C
Press
MSL
hPa
Rain since
9am
mm
Dir  Spd
kts
Gust
kts
Height
m
Period
s
Dir
31/11:30pm SW 15 18 - - - - - - - 21.8 1020.5 0.0
31/11:00pm SW 15 18 - - - - - - - 21.9 1020.6 0.0
31/10:30pm SW 16 20 - - - - - - - 22.1 1020.6 0.0
31/10:00pm SW 17 21 - - - - - - - 22.5 1020.7 0.0
31/09:30pm SW 17 21 - - - - - - - 22.7 1020.7 0.0
31/09:00pm WSW 12 16 - - - - - - - 22.7 1020.7 0.0
31/08:30pm WSW 11 14 - - - - - - - 22.4 1020.6 0.0
31/08:00pm W 11 14 - - - - - - - 22.4 1020.3 0.0
31/07:30pm W 9 12 - - - - - - - 22.3 1020.1 0.0
31/07:00pm W 11 14 - - - - - - - 22.5 1019.8 0.0
31/06:30pm W 11 14 - - - - - - - 22.7 1019.7 0.0
31/06:00pm W 11 15 - - - - - - - 23.3 1019.3 0.0
31/05:30pm W 13 18 - - - - - - - 24.2 1019.1 0.0
31/05:00pm W 11 15 - - - - - - - 25.4 1018.9 0.0
31/04:30pm WSW 11 15 - - - - - - - 25.6 1018.7 0.0
31/04:00pm WSW 11 14 - - - - - - - 26.0 1018.7 0.0
31/03:30pm WSW 10 14 - - - - - - - 25.8 1018.8 0.0
31/03:00pm WSW 9 13 - - - - - - - 26.5 1018.9 0.0
31/02:30pm W 9 12 - - - - - - - 26.4 1018.9 0.0
31/02:00pm W 9 12 - - - - - - - 26.4 1019.0 0.0
31/01:30pm WSW 10 13 - - - - - - - 26.2 1019.2 0.0
31/01:00pm WSW 8 10 - - - - - - - 26.8 1019.5 0.0
31/12:30pm SW 7 9 - - - - - - - 26.3 1019.8 0.0
31/12:00pm SW 6 8 - - - - - - - 25.9 1020.1 0.0
31/11:30am SW 6 8 - - - - - - - 25.5 1020.4 0.0
31/11:00am SW 5 8 - - - - - - - 24.7 1020.6 0.0
31/10:30am SSW 5 7 - - - - - - - 23.8 1020.7 0.0
31/10:00am SSW 6 7 - - - - - - - 23.4 1020.8 0.0
31/09:30am S 6 7 - - - - - - - 22.6 1020.7 0.0
31/09:00am SSW 8 9 - - - - - - - 22.4 1020.5 0.0
31/08:30am SSW 9 11 - - - - - - - 21.7 1020.5 0.0
31/08:00am SSW 9 11 - - - - - - - 21.6 1020.3 0.0
31/07:30am SSW 9 11 - - - - - - - 21.1 1020.0 0.0
31/07:00am SSW 10 11 - - - - - - - 20.3 1019.7 0.0
31/06:30am SSW 10 11 - - - - - - - 19.9 1019.4 0.0
31/06:00am SSW 10 12 - - - - - - - 20.0 1019.0 0.0
31/05:30am SSW 11 12 - - - - - - - 20.2 1019.0 0.0
31/05:00am SSW 10 11 - - - - - - - 20.3 1018.8 0.0
31/04:30am SSW 9 10 - - - - - - - 20.6 1018.8 0.0
31/04:00am SSW 8 10 - - - - - - - 20.6 1018.8 0.0
31/03:30am S 7 8 - - - - - - - 20.6 1019.0 0.0
31/03:00am SSW 7 8 - - - - - - - 20.7 1019.0 0.0
31/02:30am SSW 8 9 - - - - - - - 20.7 1018.9 0.0
31/02:00am SW 8 10 - - - - - - - 20.9 1019.1 0.0

Other formats

Comma delimited format used in spreadsheet applications
http://www.bom.gov.au/fwo/IDW60701/IDW60701.94303.axf

JavaScript Object Notation format (JSON) in row-major order
http://www.bom.gov.au/fwo/IDW60701/IDW60701.94303.json

Data quality

Most of these data are generated automatically and are frequently updated. Quality checks on data are not normally performed. It is possible for incorrect values to appear. Refer to information at About Latest Weather Observations and please check the disclaimer before using these data.